createdAt,value
2023-06-22T00:01:31.243Z,97777.97
2023-06-22T00:04:01.830Z,97786.53
2023-06-22T00:06:30.404Z,97793.16
2023-06-22T00:08:58.720Z,97791.53
2023-06-22T00:11:29.028Z,97784.69
2023-06-22T00:13:57.375Z,97779.50
2023-06-22T00:16:25.646Z,97785.13
2023-06-22T00:18:54.014Z,97788.06
2023-06-22T00:21:22.449Z,97786.38
2023-06-22T00:23:50.778Z,97766.88
2023-06-22T00:26:25.818Z,97753.81
2023-06-22T00:28:55.514Z,97752.13
2023-06-22T00:31:23.890Z,97755.91
2023-06-22T00:33:52.606Z,97742.78
2023-06-22T00:36:29.927Z,97744.50
2023-06-22T00:38:58.741Z,97744.09
2023-06-22T00:41:32.299Z,97737.28
2023-06-22T00:44:01.936Z,97736.88
2023-06-22T00:46:30.386Z,97718.63
2023-06-22T00:48:59.050Z,97716.16
2023-06-22T00:51:27.546Z,97704.13
2023-06-22T00:53:56.508Z,97703.53
2023-06-22T00:56:31.120Z,97697.75
2023-06-22T00:59:04.618Z,97684.91
2023-06-22T01:01:33.517Z,97691.34
2023-06-22T01:04:07.694Z,97698.84
2023-06-22T01:06:47.126Z,97683.09
2023-06-22T01:09:22.498Z,97682.47
2023-06-22T01:12:00.013Z,97667.75
2023-06-22T01:14:39.361Z,97660.31
2023-06-22T01:17:10.280Z,97674.03
2023-06-22T01:19:48.001Z,97676.09
2023-06-22T01:22:19.363Z,97679.03
2023-06-22T01:24:59.776Z,97674.06
2023-06-22T01:27:43.465Z,97678.88
2023-06-22T01:30:14.122Z,97673.69
2023-06-22T01:32:43.715Z,97668.50
2023-06-22T01:35:19.556Z,97667.03
2023-06-22T01:37:49.276Z,97668.28
2023-06-22T01:40:18.252Z,97655.22
2023-06-22T01:42:47.437Z,97660.00
2023-06-22T01:45:18.349Z,97655.88
2023-06-22T01:47:47.106Z,97649.88
2023-06-22T01:50:15.633Z,97660.06
2023-06-22T01:52:43.977Z,97661.31
2023-06-22T01:55:12.295Z,97666.69
2023-06-22T01:57:41.198Z,97673.38
2023-06-22T02:00:16.859Z,97681.88
2023-06-22T02:02:54.148Z,97669.66
2023-06-22T02:05:23.551Z,97674.22
2023-06-22T02:07:57.907Z,97676.31
2023-06-22T02:10:33.599Z,97679.22
2023-06-22T02:13:05.545Z,97675.94
2023-06-22T02:15:35.823Z,97677.16
2023-06-22T02:18:04.368Z,97669.06
2023-06-22T02:20:32.982Z,97673.03
2023-06-22T02:23:01.341Z,97670.56
2023-06-22T02:25:29.718Z,97675.34
2023-06-22T02:27:58.024Z,97679.06
2023-06-22T02:30:26.563Z,97684.69
2023-06-22T02:32:59.944Z,97685.09
2023-06-22T02:35:32.830Z,97695.09
2023-06-22T02:38:04.711Z,97687.44
2023-06-22T02:40:35.862Z,97692.19
2023-06-22T02:43:05.208Z,97692.19
2023-06-22T02:45:33.577Z,97687.00
2023-06-22T02:48:06.237Z,97696.16
2023-06-22T02:50:34.659Z,97688.50
2023-06-22T02:53:02.967Z,97689.50
2023-06-22T02:55:32.062Z,97683.53
2023-06-22T02:58:09.681Z,97676.47
2023-06-22T03:00:38.053Z,97671.28
2023-06-22T03:03:07.829Z,97674.19
2023-06-22T03:05:38.801Z,97672.53
2023-06-22T03:08:07.164Z,97668.19
2023-06-22T03:10:35.462Z,97666.53
2023-06-22T03:13:03.796Z,97666.75
2023-06-22T03:15:32.575Z,97665.09
2023-06-22T03:18:01.046Z,97659.88
2023-06-22T03:20:34.481Z,97665.28
2023-06-22T03:23:02.924Z,97661.97
2023-06-22T03:25:31.280Z,97663.63
2023-06-22T03:27:59.572Z,97664.66
2023-06-22T03:30:28.237Z,97664.66
2023-06-22T03:32:56.906Z,97665.50
2023-06-22T03:35:25.345Z,97665.50
2023-06-22T03:37:55.169Z,97671.72
2023-06-22T03:40:26.607Z,97667.34
2023-06-22T03:42:54.990Z,97667.13
2023-06-22T03:45:23.313Z,97664.44
2023-06-22T03:47:51.784Z,97662.59
2023-06-22T03:50:24.343Z,97661.53
2023-06-22T03:52:54.013Z,97662.41
2023-06-22T03:55:25.457Z,97661.53
2023-06-22T03:57:55.297Z,97658.66
2023-06-22T04:00:23.565Z,97669.44
2023-06-22T04:02:52.223Z,97665.72
2023-06-22T04:05:20.615Z,97668.41
2023-06-22T04:07:49.033Z,97662.81
2023-06-22T04:10:24.453Z,97652.03
2023-06-22T04:12:52.827Z,97657.22
2023-06-22T04:15:21.096Z,97648.91
2023-06-22T04:17:49.473Z,97638.50
2023-06-22T04:20:17.812Z,97641.19
2023-06-22T04:22:49.376Z,97643.69
2023-06-22T04:25:17.821Z,97650.53
2023-06-22T04:27:47.510Z,97652.19
2023-06-22T04:30:17.409Z,97653.59
2023-06-22T04:32:46.672Z,97652.59
2023-06-22T04:35:17.009Z,97665.00
2023-06-22T04:37:47.138Z,97657.75
2023-06-22T04:40:15.615Z,97650.28
2023-06-22T04:42:54.055Z,97655.22
2023-06-22T04:45:24.014Z,97656.91
2023-06-22T04:47:53.176Z,97652.94
2023-06-22T04:50:22.873Z,97661.41
2023-06-22T04:52:51.532Z,97660.97
2023-06-22T04:55:20.911Z,97658.91
2023-06-22T04:57:50.806Z,97662.00
2023-06-22T05:00:24.237Z,97663.44
2023-06-22T05:03:10.729Z,97656.56
2023-06-22T05:05:46.876Z,97651.56
2023-06-22T05:08:16.638Z,97646.78
2023-06-22T05:10:59.125Z,97652.34
2023-06-22T05:13:34.727Z,97650.88
2023-06-22T05:16:04.126Z,97651.03
2023-06-22T05:18:34.453Z,97645.03
2023-06-22T05:21:03.111Z,97646.28
2023-06-22T05:23:31.411Z,97652.88
2023-06-22T05:26:02.356Z,97649.53
2023-06-22T05:28:30.615Z,97651.56
2023-06-22T05:30:59.097Z,97657.31
2023-06-22T05:33:27.504Z,97667.25
2023-06-22T05:35:57.225Z,97655.78
2023-06-22T05:38:25.546Z,97657.84
2023-06-22T05:40:53.847Z,97661.34
2023-06-22T05:43:22.165Z,97660.44
2023-06-22T05:45:50.561Z,97667.63
2023-06-22T05:48:18.987Z,97663.47
2023-06-22T05:50:47.499Z,97668.78
2023-06-22T05:53:18.907Z,97666.28
2023-06-22T05:55:49.664Z,97669.97
2023-06-22T05:58:18.159Z,97678.03
2023-06-22T06:00:47.492Z,97664.47
2023-06-22T06:03:18.339Z,97662.72
2023-06-22T06:05:49.442Z,97654.56
2023-06-22T06:08:19.131Z,97654.47
2023-06-22T06:10:49.673Z,97646.88
2023-06-22T06:13:18.007Z,97652.00
2023-06-22T06:15:46.438Z,97647.13
2023-06-22T06:18:14.811Z,97638.72
2023-06-22T06:20:43.144Z,97643.34
2023-06-22T06:23:11.497Z,97647.41
2023-06-22T06:25:41.197Z,97642.28
2023-06-22T06:28:09.561Z,97649.59
2023-06-22T06:30:38.861Z,97640.72
2023-06-22T06:33:10.129Z,97644.53
2023-06-22T06:35:38.830Z,97633.97
2023-06-22T06:38:07.280Z,97635.88
2023-06-22T06:40:35.840Z,97638.84
2023-06-22T06:43:05.665Z,97628.84
2023-06-22T06:45:35.826Z,97635.13
2023-06-22T06:48:04.553Z,97633.72
2023-06-22T06:50:33.331Z,97622.88
2023-06-22T06:53:01.964Z,97615.06
2023-06-22T06:55:33.988Z,97612.81
2023-06-22T06:58:03.108Z,97600.06
2023-06-22T07:00:33.258Z,97601.13
2023-06-22T07:03:01.781Z,97600.59
2023-06-22T07:05:30.259Z,97608.13
2023-06-22T07:07:58.640Z,97613.25
2023-06-22T07:10:27.309Z,97610.25
2023-06-22T07:12:55.761Z,97600.44
2023-06-22T07:15:24.356Z,97591.16
2023-06-22T07:17:54.045Z,97597.34
2023-06-22T07:20:22.387Z,97605.19
2023-06-22T07:22:50.750Z,97600.03
2023-06-22T07:25:19.245Z,97601.56
2023-06-22T07:27:58.606Z,97596.88
2023-06-22T07:30:28.192Z,97596.75
2023-06-22T07:32:59.178Z,97601.88
2023-06-22T07:35:27.921Z,97593.38
2023-06-22T07:37:56.243Z,97591.59
2023-06-22T07:40:24.821Z,97592.84
2023-06-22T07:42:54.582Z,97588.06
2023-06-22T07:45:22.936Z,97584.38
2023-06-22T07:47:52.283Z,97577.41
2023-06-22T07:50:22.084Z,97579.69
2023-06-22T07:52:50.518Z,97578.97
2023-06-22T07:55:18.970Z,97570.66
2023-06-22T07:57:54.423Z,97575.38
2023-06-22T08:00:23.321Z,97574.97
2023-06-22T08:02:51.830Z,97575.63
2023-06-22T08:05:22.921Z,97570.81
2023-06-22T08:07:51.999Z,97566.53
2023-06-22T08:10:21.311Z,97574.84
2023-06-22T08:12:49.753Z,97569.22
2023-06-22T08:15:18.240Z,97564.38
2023-06-22T08:17:47.398Z,97553.56
2023-06-22T08:20:16.084Z,97567.00
2023-06-22T08:22:46.349Z,97562.38
2023-06-22T08:25:15.627Z,97558.13
2023-06-22T08:27:49.525Z,97559.00
2023-06-22T08:30:21.023Z,97547.03
2023-06-22T08:32:49.461Z,97547.63
2023-06-22T08:35:17.896Z,97547.38
2023-06-22T08:37:52.909Z,97542.47
2023-06-22T08:40:22.550Z,97538.38
2023-06-22T08:42:51.317Z,97545.78
2023-06-22T08:45:19.901Z,97546.31
2023-06-22T08:47:48.231Z,97540.03
2023-06-22T08:50:16.713Z,97535.88
2023-06-22T08:52:47.104Z,97540.28
2023-06-22T08:55:15.741Z,97544.34
2023-06-22T08:57:45.034Z,97540.47
2023-06-22T09:00:21.339Z,97542.88
2023-06-22T09:02:50.505Z,97526.16
2023-06-22T09:05:19.350Z,97526.94
2023-06-22T09:07:49.106Z,97532.63
2023-06-22T09:10:17.879Z,97527.34
2023-06-22T09:12:46.360Z,97530.63
2023-06-22T09:15:17.494Z,97515.50
2023-06-22T09:17:48.444Z,97516.31
2023-06-22T09:20:17.212Z,97509.66
2023-06-22T09:22:45.702Z,97504.38
2023-06-22T09:25:15.734Z,97511.41
2023-06-22T09:27:44.131Z,97501.16
2023-06-22T09:30:15.732Z,97509.94
2023-06-22T09:32:45.056Z,97497.16
2023-06-22T09:35:14.662Z,97501.09
2023-06-22T09:37:43.445Z,97496.03
2023-06-22T09:40:16.881Z,97495.59
2023-06-22T09:42:45.324Z,97497.13
2023-06-22T09:45:13.711Z,97492.03
2023-06-22T09:47:42.589Z,97487.78
2023-06-22T09:50:11.794Z,97493.66
2023-06-22T09:55:16.684Z,97483.41
2023-06-22T09:57:46.503Z,97484.41
2023-06-22T10:00:16.701Z,97488.50
2023-06-22T10:02:45.784Z,97486.63
2023-06-22T10:05:14.512Z,97482.91
2023-06-22T10:07:44.561Z,97481.78
2023-06-22T10:10:14.133Z,97493.84
2023-06-22T10:12:50.007Z,97484.19
2023-06-22T10:15:22.261Z,97481.16
2023-06-22T10:17:50.944Z,97488.06
2023-06-22T10:20:29.293Z,97482.56
2023-06-22T10:22:59.633Z,97482.22
2023-06-22T10:25:29.976Z,97476.94
2023-06-22T10:27:59.959Z,97472.53
2023-06-22T10:30:29.968Z,97477.31
2023-06-22T10:32:58.435Z,97468.09
2023-06-22T10:35:32.192Z,97470.94
2023-06-22T10:38:00.963Z,97469.38
2023-06-22T10:40:29.342Z,97459.38
2023-06-22T10:42:59.094Z,97457.28
2023-06-22T10:45:28.598Z,97455.19
2023-06-22T10:47:57.354Z,97464.09
2023-06-22T10:50:26.749Z,97458.16
2023-06-22T10:52:58.141Z,97450.00
2023-06-22T10:55:37.172Z,97456.16
2023-06-22T10:58:17.075Z,97454.25
2023-06-22T11:00:45.404Z,97455.19
2023-06-22T11:03:15.393Z,97445.53
2023-06-22T11:05:43.920Z,97436.03
2023-06-22T11:08:12.184Z,97439.59
2023-06-22T11:10:40.672Z,97435.81
2023-06-22T11:13:11.103Z,97427.19
2023-06-22T11:15:42.878Z,97426.97
2023-06-22T11:18:11.429Z,97425.09
2023-06-22T11:20:44.459Z,97424.25
2023-06-22T11:23:13.882Z,97424.53
2023-06-22T11:25:43.573Z,97416.84
2023-06-22T11:28:11.960Z,97422.94
2023-06-22T11:30:40.324Z,97415.03
2023-06-22T11:33:10.075Z,97406.13
2023-06-22T11:35:38.441Z,97400.69
2023-06-22T11:38:06.728Z,97398.50
2023-06-22T11:40:35.010Z,97396.28
2023-06-22T11:43:03.884Z,97391.31
2023-06-22T11:45:32.223Z,97385.19
2023-06-22T11:48:00.702Z,97387.41
2023-06-22T11:50:31.692Z,97378.19
2023-06-22T11:53:00.266Z,97379.69
2023-06-22T11:55:28.615Z,97370.50
2023-06-22T11:58:01.133Z,97372.97
2023-06-22T12:00:30.724Z,97380.44
2023-06-22T12:03:01.108Z,97371.38
2023-06-22T12:05:31.257Z,97372.00
2023-06-22T12:07:59.634Z,97361.47
2023-06-22T12:10:29.969Z,97358.56
2023-06-22T12:13:00.947Z,97350.28
2023-06-22T12:15:29.697Z,97345.06
2023-06-22T12:17:58.054Z,97337.38
2023-06-22T12:20:26.677Z,97333.97
2023-06-22T12:22:57.291Z,97324.88
2023-06-22T12:25:25.769Z,97326.00
2023-06-22T12:27:54.915Z,97331.69
2023-06-22T12:30:23.338Z,97327.00
2023-06-22T12:32:54.437Z,97312.69
2023-06-22T12:35:23.649Z,97327.16
2023-06-22T12:37:52.030Z,97318.03
2023-06-22T12:40:23.887Z,97313.50
2023-06-22T12:42:52.242Z,97312.34
2023-06-22T12:45:22.457Z,97309.41
2023-06-22T12:47:53.855Z,97305.38
2023-06-22T12:50:22.159Z,97299.38
2023-06-22T12:52:50.462Z,97297.88
2023-06-22T12:55:18.871Z,97296.41
2023-06-22T12:57:48.538Z,97290.72
2023-06-22T13:00:18.398Z,97297.22
2023-06-22T13:02:46.804Z,97290.06
2023-06-22T13:05:15.271Z,97295.44
2023-06-22T13:07:43.912Z,97286.50
2023-06-22T13:10:12.395Z,97285.34
2023-06-22T13:12:40.717Z,97281.78
2023-06-22T13:15:11.109Z,97287.31
2023-06-22T13:17:39.561Z,97275.56
2023-06-22T13:20:17.714Z,97284.69
2023-06-22T13:22:46.158Z,97275.88
2023-06-22T13:25:14.808Z,97269.50
2023-06-22T13:27:43.236Z,97268.66
2023-06-22T13:30:16.521Z,97268.66
2023-06-22T13:32:45.029Z,97265.69
2023-06-22T13:35:14.108Z,97260.31
2023-06-22T13:37:42.577Z,97256.06
2023-06-22T13:40:11.842Z,97249.84
2023-06-22T13:42:40.264Z,97243.19
2023-06-22T13:45:16.939Z,97240.44
2023-06-22T13:47:45.325Z,97237.78
2023-06-22T13:50:14.824Z,97244.28
2023-06-22T13:52:43.197Z,97246.41
2023-06-22T13:55:15.392Z,97239.53
2023-06-22T13:57:44.477Z,97240.31
2023-06-22T14:00:17.437Z,97249.28
2023-06-22T14:02:45.885Z,97237.94
2023-06-22T14:05:14.410Z,97232.25
2023-06-22T14:07:43.183Z,97224.59
2023-06-22T14:10:14.994Z,97221.72
2023-06-22T14:12:43.398Z,97222.41
2023-06-22T14:15:13.414Z,97216.91
2023-06-22T14:17:41.787Z,97229.28
2023-06-22T14:20:14.083Z,97223.47
2023-06-22T14:22:42.480Z,97226.91
2023-06-22T14:25:11.219Z,97211.78
2023-06-22T14:27:39.517Z,97210.16
2023-06-22T14:30:09.556Z,97209.69
2023-06-22T14:32:39.290Z,97208.19
2023-06-22T14:35:13.125Z,97211.63
2023-06-22T14:37:41.469Z,97206.44
2023-06-22T14:40:10.915Z,97206.91
2023-06-22T14:42:39.337Z,97208.88
2023-06-22T14:45:12.134Z,97208.03
2023-06-22T14:47:42.045Z,97207.38
2023-06-22T14:50:11.123Z,97201.06
2023-06-22T14:52:39.518Z,97189.66
2023-06-22T14:55:09.247Z,97195.19
2023-06-22T14:57:37.653Z,97185.75
2023-06-22T15:00:08.083Z,97177.94
2023-06-22T15:02:36.657Z,97175.28
2023-06-22T15:05:07.236Z,97171.84
2023-06-22T15:07:35.666Z,97171.69
2023-06-22T15:10:04.129Z,97170.19
2023-06-22T15:12:32.468Z,97172.28
2023-06-22T15:15:00.830Z,97165.28
2023-06-22T15:17:30.428Z,97165.28
2023-06-22T15:20:02.423Z,97162.19
2023-06-22T15:22:32.382Z,97164.63
2023-06-22T15:25:00.776Z,97155.22
2023-06-22T15:27:29.174Z,97156.34
2023-06-22T15:30:00.749Z,97140.53
2023-06-22T15:32:30.027Z,97139.06
2023-06-22T15:34:58.423Z,97132.50
2023-06-22T15:37:26.802Z,97124.38
2023-06-22T15:39:57.129Z,97119.78
2023-06-22T15:42:25.493Z,97116.22
2023-06-22T15:44:53.824Z,97109.50
2023-06-22T15:47:23.909Z,97096.50
2023-06-22T15:49:52.993Z,97093.72
2023-06-22T15:52:21.716Z,97090.97
2023-06-22T15:54:51.227Z,97075.03
2023-06-22T15:57:20.995Z,97080.09
2023-06-22T15:59:49.370Z,97076.50
2023-06-22T16:02:17.757Z,97076.72
2023-06-22T16:04:46.155Z,97071.03
2023-06-22T16:07:14.690Z,97069.75
2023-06-22T16:09:43.215Z,97065.34
2023-06-22T16:12:12.050Z,97072.69
2023-06-22T16:14:43.073Z,97066.22
2023-06-22T16:17:11.539Z,97064.44
2023-06-22T16:19:39.943Z,97064.19
2023-06-22T16:22:08.682Z,97056.56
2023-06-22T16:24:37.060Z,97059.22
2023-06-22T16:27:05.967Z,97053.69
2023-06-22T16:29:37.355Z,97049.16
2023-06-22T16:32:09.202Z,97042.25
2023-06-22T16:34:37.585Z,97039.66
2023-06-22T16:37:06.827Z,97038.22
2023-06-22T16:39:35.148Z,97024.56
2023-06-22T16:42:03.874Z,97027.69
2023-06-22T16:44:32.302Z,97026.06
2023-06-22T16:47:02.459Z,97018.94
2023-06-22T16:49:32.209Z,97008.38
2023-06-22T16:52:00.803Z,97005.47
2023-06-22T16:54:31.732Z,97006.09
2023-06-22T16:57:03.427Z,97000.09
2023-06-22T16:59:31.965Z,96989.22
2023-06-22T17:02:00.657Z,96980.78
2023-06-22T17:04:33.135Z,96980.31
2023-06-22T17:07:09.893Z,96979.06
2023-06-22T17:09:42.599Z,96972.53
2023-06-22T17:12:11.973Z,96962.66
2023-06-22T17:14:45.460Z,96950.66
2023-06-22T17:17:15.972Z,96915.75
2023-06-22T17:19:45.988Z,96908.13
2023-06-22T17:22:14.431Z,96919.34
2023-06-22T17:24:43.089Z,96955.38
2023-06-22T17:27:11.587Z,96996.34
2023-06-22T17:29:39.902Z,97008.25
2023-06-22T17:32:09.086Z,96999.16
2023-06-22T17:34:38.335Z,97005.84
2023-06-22T17:37:08.138Z,97006.16
2023-06-22T17:39:36.631Z,97003.41
2023-06-22T17:42:10.231Z,96995.78
2023-06-22T17:44:38.620Z,96989.47
2023-06-22T17:47:07.526Z,96970.47
2023-06-22T17:49:35.917Z,96952.59
2023-06-22T17:52:04.437Z,96955.19
2023-06-22T17:54:39.507Z,96970.41
2023-06-22T17:57:18.042Z,96995.81
2023-06-22T17:59:51.100Z,97007.47
2023-06-22T18:02:26.360Z,97019.91
2023-06-22T18:04:59.925Z,97013.88
2023-06-22T18:07:31.106Z,97026.28
2023-06-22T18:10:06.032Z,97032.38
2023-06-22T18:12:36.136Z,97038.78
2023-06-22T18:15:05.892Z,97042.13
2023-06-22T18:17:35.226Z,97042.69
2023-06-22T18:20:07.762Z,97044.03
2023-06-22T18:22:37.209Z,97039.91
2023-06-22T18:25:14.460Z,97042.44
2023-06-22T18:27:44.621Z,97042.31
2023-06-22T18:30:13.739Z,97050.81
2023-06-22T18:32:42.506Z,97062.22
2023-06-22T18:35:12.504Z,97069.69
2023-06-22T18:37:43.455Z,97076.53
2023-06-22T18:40:18.066Z,97108.56
2023-06-22T18:42:50.554Z,97132.38
2023-06-22T18:45:26.285Z,97168.81
2023-06-22T18:48:03.302Z,97191.47
2023-06-22T18:50:40.512Z,97220.47
2023-06-22T18:53:16.883Z,97233.78
2023-06-22T18:55:52.593Z,97236.66
2023-06-22T18:58:26.606Z,97250.22
2023-06-22T19:00:56.415Z,97251.22
2023-06-22T19:03:36.023Z,97254.22
2023-06-22T19:06:04.673Z,97262.56
2023-06-22T19:09:15.799Z,97234.88
2023-06-22T19:11:45.567Z,97183.28
2023-06-22T19:14:21.998Z,97151.16
2023-06-22T19:16:59.286Z,97151.41
2023-06-22T19:19:27.791Z,97156.03
2023-06-22T19:22:01.896Z,97142.09
2023-06-22T19:24:44.314Z,97125.34
2023-06-22T19:27:14.975Z,97046.44
2023-06-22T19:29:43.760Z,97031.59
2023-06-22T19:32:12.525Z,97012.34
2023-06-22T19:34:46.877Z,97002.97
2023-06-22T19:37:18.381Z,96999.81
2023-06-22T19:39:47.674Z,97009.81
2023-06-22T19:42:17.652Z,96996.81
2023-06-22T19:44:47.222Z,96976.97
2023-06-22T19:47:16.466Z,96979.22
2023-06-22T19:49:45.368Z,96986.84
2023-06-22T19:52:13.724Z,96975.44
2023-06-22T19:54:42.305Z,96947.63
2023-06-22T19:57:11.378Z,96928.03
2023-06-22T19:59:41.422Z,96917.41
2023-06-22T20:02:11.408Z,96916.09
2023-06-22T20:04:40.802Z,96918.63
2023-06-22T20:07:09.703Z,96918.63
2023-06-22T20:09:43.328Z,96904.97
2023-06-22T20:12:15.316Z,96892.22
2023-06-22T20:14:45.339Z,96902.38
2023-06-22T20:17:17.457Z,96916.84
2023-06-22T20:19:46.265Z,96940.34
2023-06-22T20:22:14.643Z,96945.28
2023-06-22T20:24:42.957Z,96943.13
2023-06-22T20:27:14.370Z,96967.94
2023-06-22T20:29:45.224Z,96979.94
2023-06-22T20:32:15.482Z,96996.31
2023-06-22T20:34:46.642Z,97024.13
2023-06-22T20:37:15.663Z,97031.47
2023-06-22T20:39:48.482Z,97069.91
2023-06-22T20:42:18.540Z,97151.16
2023-06-22T20:44:51.782Z,97147.84
2023-06-22T20:47:22.523Z,97173.19
2023-06-22T20:49:51.246Z,97196.66
2023-06-22T20:52:19.864Z,97200.72
2023-06-22T20:54:48.488Z,97203.69
2023-06-22T20:57:16.988Z,97220.25
2023-06-22T20:59:45.365Z,97243.66
2023-06-22T21:02:16.974Z,97246.34
2023-06-22T21:04:45.589Z,97253.41
2023-06-22T21:07:13.951Z,97261.00
2023-06-22T21:09:51.460Z,97261.00
2023-06-22T21:12:20.772Z,97262.06
2023-06-22T21:14:50.691Z,97253.59
2023-06-22T21:17:20.785Z,97237.25
2023-06-22T21:19:49.277Z,97238.84
2023-06-22T21:22:17.637Z,97250.53
2023-06-22T21:24:46.555Z,97242.63
2023-06-22T21:27:15.103Z,97234.16
2023-06-22T21:29:43.430Z,97235.00
2023-06-22T21:32:11.866Z,97219.97
2023-06-22T21:34:41.565Z,97235.25
2023-06-22T21:37:09.879Z,97248.78
2023-06-22T21:39:38.207Z,97267.03
2023-06-22T21:42:15.929Z,97276.53
2023-06-22T21:44:44.220Z,97275.75
2023-06-22T21:47:12.594Z,97294.47
2023-06-22T21:49:42.752Z,97327.66
2023-06-22T21:52:12.681Z,97334.09
2023-06-22T21:54:41.151Z,97323.19
2023-06-22T21:57:09.945Z,97329.91
2023-06-22T21:59:38.254Z,97350.25
2023-06-22T22:02:07.388Z,97364.31
2023-06-22T22:04:35.871Z,97350.31
2023-06-22T22:07:07.612Z,97386.97
2023-06-22T22:09:35.928Z,97420.59
2023-06-22T22:12:04.522Z,97413.72
2023-06-22T22:14:33.235Z,97424.81
2023-06-22T22:17:01.651Z,97447.31
2023-06-22T22:19:30.033Z,97455.06
2023-06-22T22:21:58.346Z,97483.81
2023-06-22T22:24:28.043Z,97498.97
2023-06-22T22:26:56.356Z,97490.72
2023-06-22T22:29:24.669Z,97511.56
2023-06-22T22:31:53.040Z,97491.06
2023-06-22T22:34:21.363Z,97500.22
2023-06-22T22:36:49.836Z,97486.78
2023-06-22T22:39:39.569Z,97498.59
2023-06-22T22:42:09.258Z,97515.63
2023-06-22T22:44:37.538Z,97500.22
2023-06-22T22:47:08.233Z,97503.88
2023-06-22T22:49:36.560Z,97503.22
2023-06-22T22:52:06.026Z,97494.44
2023-06-22T22:54:36.032Z,97491.88
2023-06-22T22:57:04.960Z,97490.72
2023-06-22T22:59:33.263Z,97487.06
2023-06-22T23:02:01.686Z,97489.72
2023-06-22T23:04:30.017Z,97484.19
2023-06-22T23:07:01.249Z,97444.22
2023-06-22T23:09:29.562Z,97422.44
2023-06-22T23:11:59.302Z,97432.13
2023-06-22T23:14:27.621Z,97442.03
2023-06-22T23:16:57.741Z,97438.91
2023-06-22T23:19:26.437Z,97449.28
2023-06-22T23:21:54.701Z,97461.09
2023-06-22T23:24:23.032Z,97470.78
2023-06-22T23:26:51.404Z,97472.34
2023-06-22T23:29:21.126Z,97478.25
2023-06-22T23:31:49.448Z,97490.41
2023-06-22T23:34:17.770Z,97498.19
2023-06-22T23:36:49.038Z,97514.09
2023-06-22T23:39:18.839Z,97531.41
2023-06-22T23:41:55.125Z,97535.91
2023-06-22T23:44:26.023Z,97548.63
2023-06-22T23:46:54.389Z,97542.84
2023-06-22T23:49:22.645Z,97547.09
2023-06-22T23:51:50.990Z,97552.97
2023-06-22T23:54:19.300Z,97557.78
2023-06-22T23:56:47.646Z,97547.19
2023-06-22T23:59:15.985Z,97547.66
